Viboras, Texas
Current Conditions -  °F | °C
As of 2:35 AM on Tuesday 21 Oct 2014 (Local Time) from KHBV Reporting Station
Broken Clouds Broken Clouds  
Wind Chill: 69°   Ceiling: 200
Heat Index: 69°   Visibility: 4mi
Dew Point: 68°   Wind: 5mph
Humidity: 95%   Direction: 40°NE
Pressure: 29.98"   Gusts: NA
Location:  27.0695°N, 98.7494°W
Report Text: KHBV 210735Z AUTO 04004KT 4SM BKN002 BKN010 BKN014 21/20 A2998 RMK AO2 T02070198 PWINO
Loading
Personal Weather Stations






























Interactive Weather Map
Tropical Storm Tracking
New forecast layout! Learn more

10-Day Weather Forecast

Advertisements
Track Severe Weather on mobile